createdAt,value
2024-02-29T00:00:52.102Z,75.50
2024-02-29T00:03:18.578Z,106.60
2024-02-29T00:05:45.884Z,78.23
2024-02-29T00:08:12.622Z,338.43
2024-02-29T00:10:39.210Z,395.13
2024-02-29T00:13:07.272Z,79.07
2024-02-29T00:15:34.138Z,278.93
2024-02-29T00:18:00.973Z,47.67
2024-02-29T00:20:27.498Z,55.40
2024-02-29T00:22:54.015Z,51.43
2024-02-29T00:25:20.477Z,52.73
2024-02-29T00:27:47.146Z,47.73
2024-02-29T00:30:14.544Z,46.27
2024-02-29T00:32:41.240Z,53.63
2024-02-29T00:35:10.258Z,51.30
2024-02-29T00:37:37.049Z,55.57
2024-02-29T00:40:04.027Z,50.93
2024-02-29T00:42:30.831Z,51.67
2024-02-29T00:44:57.436Z,55.60
2024-02-29T00:47:23.923Z,55.70
2024-02-29T00:49:50.430Z,52.43
2024-02-29T00:52:16.920Z,51.77
2024-02-29T00:54:43.520Z,48.07
2024-02-29T00:57:09.993Z,50.80
2024-02-29T00:59:37.112Z,46.40
2024-02-29T01:02:04.695Z,49.53
2024-02-29T01:04:31.209Z,48.27
2024-02-29T01:06:58.384Z,46.63
2024-02-29T01:09:28.902Z,45.10
2024-02-29T01:11:55.833Z,53.97
2024-02-29T01:14:22.458Z,46.97
2024-02-29T01:16:49.780Z,63.50
2024-02-29T01:19:16.426Z,48.40
2024-02-29T01:21:43.111Z,75.03
2024-02-29T01:24:09.638Z,130.63
2024-02-29T01:26:36.152Z,102.30
2024-02-29T01:29:02.659Z,98.33
2024-02-29T01:31:29.800Z,160.70
2024-02-29T01:33:56.731Z,105.73
2024-02-29T01:36:23.255Z,139.30
2024-02-29T01:38:49.842Z,156.23
2024-02-29T01:41:16.643Z,152.87
2024-02-29T01:43:53.943Z,256.43
2024-02-29T01:46:21.458Z,252.60
2024-02-29T01:48:51.673Z,206.57
2024-02-29T01:51:19.988Z,185.93
2024-02-29T01:53:46.724Z,245.60
2024-02-29T01:56:16.564Z,269.50
2024-02-29T01:58:43.429Z,224.67
2024-02-29T02:01:10.365Z,307.97
2024-02-29T02:03:38.340Z,182.53
2024-02-29T02:06:05.358Z,162.77
2024-02-29T02:08:37.323Z,145.80
2024-02-29T02:11:04.036Z,213.13
2024-02-29T02:13:30.832Z,221.60
2024-02-29T02:15:57.267Z,145.43
2024-02-29T02:18:23.803Z,209.27
2024-02-29T02:20:50.992Z,285.17
2024-02-29T02:23:17.872Z,148.50
2024-02-29T02:25:44.526Z,106.17
2024-02-29T02:28:13.355Z,185.57
2024-02-29T02:30:40.498Z,98.57
2024-02-29T02:33:07.158Z,125.80
2024-02-29T02:35:35.114Z,91.70
2024-02-29T02:38:05.842Z,69.30
2024-02-29T02:40:32.745Z,64.83
2024-02-29T02:42:59.495Z,59.97
2024-02-29T02:45:26.174Z,59.43
2024-02-29T02:47:53.055Z,63.83
2024-02-29T02:50:19.910Z,73.33
2024-02-29T02:52:46.443Z,67.10
2024-02-29T02:55:13.383Z,64.47
2024-02-29T02:57:39.965Z,81.53
2024-02-29T03:00:08.016Z,60.93
2024-02-29T03:02:34.478Z,76.53
2024-02-29T03:05:01.069Z,84.93
2024-02-29T03:07:27.589Z,96.40
2024-02-29T03:09:54.345Z,100.90
2024-02-29T03:12:20.912Z,132.97
2024-02-29T03:14:47.611Z,127.30
2024-02-29T03:17:14.274Z,158.70
2024-02-29T03:19:40.959Z,129.87
2024-02-29T03:22:07.580Z,104.23
2024-02-29T03:24:34.283Z,167.63
2024-02-29T03:27:00.760Z,129.60
2024-02-29T03:29:27.448Z,99.97
2024-02-29T03:31:54.196Z,77.07
2024-02-29T03:34:21.034Z,93.50
2024-02-29T03:36:47.672Z,70.57
2024-02-29T03:39:14.182Z,138.27
2024-02-29T03:41:40.712Z,145.60
2024-02-29T03:44:07.356Z,162.63
2024-02-29T03:46:33.876Z,209.67
2024-02-29T03:49:00.647Z,187.37
2024-02-29T03:51:27.150Z,183.90
2024-02-29T03:53:53.831Z,276.03
2024-02-29T03:56:21.523Z,160.53
2024-02-29T03:58:47.944Z,272.00
2024-02-29T04:01:14.943Z,349.43
2024-02-29T04:03:42.289Z,410.67
2024-02-29T04:06:08.945Z,425.47
2024-02-29T04:08:37.460Z,216.20
2024-02-29T04:11:04.617Z,323.60
2024-02-29T04:13:31.688Z,200.40
2024-02-29T04:15:58.497Z,121.67
2024-02-29T04:18:25.159Z,305.97
2024-02-29T04:21:12.168Z,302.93
2024-02-29T04:23:38.812Z,242.97
2024-02-29T04:26:37.837Z,307.70
2024-02-29T04:29:04.359Z,317.23
2024-02-29T04:31:30.905Z,284.37
2024-02-29T04:33:57.453Z,262.57
2024-02-29T04:36:23.965Z,321.47
2024-02-29T04:38:51.193Z,300.17
2024-02-29T04:41:18.030Z,368.00
2024-02-29T04:43:44.478Z,268.97
2024-02-29T04:46:11.040Z,253.97
2024-02-29T04:48:37.716Z,289.60
2024-02-29T04:51:06.179Z,282.43
2024-02-29T04:53:32.820Z,384.30
2024-02-29T04:55:59.354Z,151.07
2024-02-29T04:58:25.781Z,194.87
2024-02-29T05:00:53.282Z,152.00
2024-02-29T05:03:20.153Z,274.63
2024-02-29T05:05:46.848Z,247.23
2024-02-29T05:08:14.076Z,200.10
2024-02-29T05:10:40.925Z,258.17
2024-02-29T05:13:07.697Z,435.10
2024-02-29T05:15:34.589Z,189.07
2024-02-29T05:18:01.666Z,137.73
2024-02-29T05:20:29.856Z,203.33
2024-02-29T05:22:56.372Z,313.80
2024-02-29T05:25:23.019Z,491.57
2024-02-29T05:27:49.567Z,514.23
2024-02-29T05:30:16.385Z,510.17
2024-02-29T05:32:43.257Z,497.13
2024-02-29T05:35:09.964Z,545.13
2024-02-29T05:37:37.426Z,564.70
2024-02-29T05:40:06.998Z,547.90
2024-02-29T05:42:34.115Z,456.47
2024-02-29T05:45:01.101Z,399.37
2024-02-29T05:47:27.874Z,429.50
2024-02-29T05:49:54.610Z,296.00
2024-02-29T05:52:21.098Z,513.20
2024-02-29T05:54:47.757Z,487.63
2024-02-29T05:57:14.259Z,502.80
2024-02-29T05:59:40.696Z,554.37
2024-02-29T06:02:10.813Z,562.80
2024-02-29T06:04:37.746Z,504.50
2024-02-29T06:07:05.442Z,553.03
2024-02-29T06:09:31.910Z,577.67
2024-02-29T06:11:58.372Z,679.00
2024-02-29T06:14:25.807Z,599.57
2024-02-29T06:16:52.424Z,610.53
2024-02-29T06:19:19.014Z,416.60
2024-02-29T06:21:45.723Z,423.53
2024-02-29T06:24:12.424Z,278.77
2024-02-29T06:26:39.253Z,228.00
2024-02-29T06:29:05.995Z,283.67
2024-02-29T06:31:32.554Z,248.40
2024-02-29T06:34:01.532Z,376.20
2024-02-29T06:36:28.296Z,318.17
2024-02-29T06:38:55.068Z,281.23
2024-02-29T06:41:21.662Z,400.07
2024-02-29T06:43:48.335Z,381.20
2024-02-29T06:46:14.891Z,341.23
2024-02-29T06:48:41.586Z,504.20
2024-02-29T06:51:08.053Z,383.43
2024-02-29T06:53:34.602Z,204.03
2024-02-29T06:56:01.227Z,330.73
2024-02-29T06:58:27.997Z,497.73
2024-02-29T07:00:54.948Z,285.57
2024-02-29T07:03:23.597Z,279.30
2024-02-29T07:05:51.092Z,115.43
2024-02-29T07:08:17.575Z,273.77
2024-02-29T07:10:44.143Z,238.93
2024-02-29T07:13:11.295Z,211.43
2024-02-29T07:15:38.202Z,410.87
2024-02-29T07:18:04.993Z,447.30
2024-02-29T07:20:31.707Z,408.93
2024-02-29T07:23:00.380Z,521.30
2024-02-29T07:25:28.822Z,490.97
2024-02-29T07:27:56.323Z,425.67
2024-02-29T07:30:23.000Z,529.97
2024-02-29T07:32:49.760Z,511.63
2024-02-29T07:35:18.796Z,531.87
2024-02-29T07:37:45.860Z,477.50
2024-02-29T07:40:12.708Z,367.73
2024-02-29T07:42:42.944Z,535.87
2024-02-29T07:45:10.170Z,265.17
2024-02-29T07:47:37.334Z,429.43
2024-02-29T07:50:07.227Z,462.83
2024-02-29T07:52:33.952Z,462.87
2024-02-29T07:55:00.882Z,460.50
2024-02-29T07:57:27.557Z,569.13
2024-02-29T07:59:53.996Z,551.83
2024-02-29T08:02:23.102Z,470.53
2024-02-29T08:04:51.308Z,540.37
2024-02-29T08:07:17.914Z,433.20
2024-02-29T08:09:44.466Z,452.07
2024-02-29T08:12:10.947Z,304.67
2024-02-29T08:14:37.432Z,274.53
2024-02-29T08:17:04.017Z,223.40
2024-02-29T08:19:30.507Z,284.20
2024-02-29T08:21:57.784Z,201.73
2024-02-29T08:24:24.211Z,202.50
2024-02-29T08:26:51.057Z,188.40
2024-02-29T08:29:17.926Z,327.53
2024-02-29T08:31:45.322Z,144.87
2024-02-29T08:34:12.001Z,286.73
2024-02-29T08:36:38.720Z,465.70
2024-02-29T08:39:05.335Z,312.07
2024-02-29T08:41:31.805Z,342.83
2024-02-29T08:43:58.298Z,258.53
2024-02-29T08:46:24.849Z,91.53
2024-02-29T08:48:51.458Z,173.63
2024-02-29T08:51:17.956Z,65.80
2024-02-29T08:53:44.411Z,226.33
2024-02-29T08:56:10.930Z,109.93
2024-02-29T08:58:37.684Z,93.27
2024-02-29T09:01:05.253Z,90.50
2024-02-29T09:03:31.868Z,90.93
2024-02-29T09:05:58.294Z,202.77
2024-02-29T09:08:25.014Z,74.37
2024-02-29T09:10:51.825Z,115.70
2024-02-29T09:13:29.812Z,95.27
2024-02-29T09:16:01.711Z,96.40
2024-02-29T09:18:30.172Z,93.83
2024-02-29T09:20:56.602Z,62.55
2024-02-29T09:23:23.041Z,77.87
2024-02-29T09:25:50.949Z,69.20
2024-02-29T09:28:17.399Z,72.20
2024-02-29T09:30:44.334Z,97.80
2024-02-29T09:33:10.961Z,76.97
2024-02-29T09:35:37.649Z,81.17
2024-02-29T09:38:05.809Z,80.07
2024-02-29T09:40:41.891Z,87.93
2024-02-29T09:43:15.722Z,81.30
2024-02-29T09:45:43.642Z,74.13
2024-02-29T09:48:12.189Z,73.83
2024-02-29T09:50:39.016Z,68.60
2024-02-29T09:53:06.780Z,69.23
2024-02-29T09:55:35.217Z,74.30
2024-02-29T09:58:03.699Z,69.32
2024-02-29T10:00:31.722Z,72.80
2024-02-29T10:02:58.805Z,75.25
2024-02-29T10:05:26.047Z,68.50
2024-02-29T10:07:53.549Z,74.88
2024-02-29T10:10:20.076Z,64.40
2024-02-29T10:12:54.751Z,69.68
2024-02-29T10:15:26.258Z,66.45
2024-02-29T10:17:54.404Z,69.60
2024-02-29T10:20:24.067Z,64.78
2024-02-29T10:22:50.936Z,58.63
2024-02-29T10:25:17.729Z,65.00
2024-02-29T10:27:44.663Z,60.40
2024-02-29T10:30:16.657Z,59.38
2024-02-29T10:32:45.501Z,61.28
2024-02-29T10:35:39.842Z,53.60
2024-02-29T10:38:09.929Z,57.38
2024-02-29T10:40:36.571Z,55.63
2024-02-29T10:43:04.047Z,53.00
2024-02-29T10:45:35.635Z,57.92
2024-02-29T10:48:16.014Z,49.63
2024-02-29T10:50:54.394Z,48.22
2024-02-29T10:53:42.182Z,51.78
2024-02-29T10:56:20.792Z,51.90
2024-02-29T10:58:50.732Z,51.83
2024-02-29T11:01:18.056Z,49.10
2024-02-29T11:03:45.513Z,48.05
2024-02-29T11:06:13.970Z,45.78
2024-02-29T11:08:41.639Z,46.92
2024-02-29T11:11:14.121Z,48.30
2024-02-29T11:13:41.053Z,50.63
2024-02-29T11:16:12.281Z,54.30
2024-02-29T11:18:39.302Z,53.17
2024-02-29T11:21:06.685Z,56.42
2024-02-29T11:23:40.628Z,58.90
2024-02-29T11:26:14.500Z,56.40
2024-02-29T11:28:42.402Z,54.55
2024-02-29T11:31:12.785Z,51.75
2024-02-29T11:33:39.529Z,56.65
2024-02-29T11:36:06.406Z,50.92
2024-02-29T11:38:40.150Z,59.25
2024-02-29T11:41:20.469Z,55.25
2024-02-29T11:43:47.946Z,53.95
2024-02-29T11:46:15.227Z,50.22
2024-02-29T11:48:42.273Z,51.63
2024-02-29T11:51:10.474Z,52.35
2024-02-29T11:53:39.768Z,57.00
2024-02-29T11:56:14.613Z,44.47
2024-02-29T11:58:43.639Z,40.63
2024-02-29T12:01:13.716Z,43.72
2024-02-29T12:03:40.394Z,38.17
2024-02-29T12:06:07.306Z,40.35
2024-02-29T12:08:33.852Z,34.45
2024-02-29T12:11:01.452Z,33.58
2024-02-29T12:13:29.167Z,34.80
2024-02-29T12:15:56.615Z,39.20
2024-02-29T12:18:24.043Z,36.25
2024-02-29T12:20:51.360Z,40.08
2024-02-29T12:23:20.176Z,35.28
2024-02-29T12:25:47.387Z,33.28
2024-02-29T12:28:14.756Z,30.75
2024-02-29T12:30:41.817Z,36.60
2024-02-29T12:33:09.315Z,32.42
2024-02-29T12:35:35.855Z,32.25
2024-02-29T12:38:05.449Z,27.52
2024-02-29T12:40:34.169Z,29.27
2024-02-29T12:43:01.283Z,28.00
2024-02-29T12:45:28.198Z,29.35
2024-02-29T12:47:55.717Z,30.70
2024-02-29T12:50:23.005Z,31.13
2024-02-29T12:52:55.082Z,29.50
2024-02-29T12:55:24.709Z,31.73
2024-02-29T12:57:51.489Z,29.58
2024-02-29T13:00:28.345Z,28.92
2024-02-29T13:02:55.063Z,28.80
2024-02-29T13:05:22.572Z,28.63
2024-02-29T13:07:49.797Z,24.80
2024-02-29T13:10:16.495Z,24.98
2024-02-29T13:12:44.458Z,27.40
2024-02-29T13:15:14.082Z,27.73
2024-02-29T13:17:41.066Z,25.27
2024-02-29T13:20:08.150Z,25.60
2024-02-29T13:22:35.784Z,26.42
2024-02-29T13:25:04.111Z,27.05
2024-02-29T13:27:31.045Z,24.05
2024-02-29T13:29:57.677Z,25.10
2024-02-29T13:32:24.647Z,24.75
2024-02-29T13:34:51.863Z,25.60
2024-02-29T13:37:20.533Z,26.92
2024-02-29T13:39:47.466Z,29.83
2024-02-29T13:42:14.005Z,21.73
2024-02-29T13:44:40.756Z,22.95
2024-02-29T13:47:07.212Z,21.50
2024-02-29T13:49:34.701Z,24.40
2024-02-29T13:52:01.236Z,26.05
2024-02-29T13:54:27.792Z,23.35
2024-02-29T13:56:54.413Z,23.17
2024-02-29T13:59:21.066Z,20.52
2024-02-29T14:01:48.485Z,22.27
2024-02-29T14:04:16.829Z,18.48
2024-02-29T14:06:44.543Z,20.00
2024-02-29T14:09:12.389Z,20.30
2024-02-29T14:11:39.996Z,19.15
2024-02-29T14:14:07.199Z,19.75
2024-02-29T14:16:34.157Z,17.88
2024-02-29T14:19:00.769Z,18.80
2024-02-29T14:21:27.354Z,17.77
2024-02-29T14:23:53.869Z,19.98
2024-02-29T14:26:20.786Z,18.40
2024-02-29T14:28:47.338Z,16.48
2024-02-29T14:31:14.756Z,22.58
2024-02-29T14:33:42.196Z,17.27
2024-02-29T14:36:11.321Z,17.83
2024-02-29T14:38:38.542Z,16.85
2024-02-29T14:41:05.251Z,18.98
2024-02-29T14:43:31.784Z,16.27
2024-02-29T14:45:58.311Z,16.77
2024-02-29T14:48:25.690Z,17.90
2024-02-29T14:50:52.410Z,13.98
2024-02-29T14:53:19.044Z,14.18
2024-02-29T14:55:45.501Z,16.13
2024-02-29T14:58:12.042Z,14.95
2024-02-29T15:00:38.537Z,14.38
2024-02-29T15:03:05.424Z,13.07
2024-02-29T15:05:31.849Z,13.85
2024-02-29T15:07:59.061Z,10.95
2024-02-29T15:10:25.606Z,13.50
2024-02-29T15:12:52.302Z,12.10
2024-02-29T15:15:18.909Z,13.80
2024-02-29T15:17:45.841Z,11.98
2024-02-29T15:20:12.500Z,13.63
2024-02-29T15:22:39.014Z,9.93
2024-02-29T15:25:15.372Z,14.68
2024-02-29T15:27:47.394Z,12.20
2024-02-29T15:30:14.342Z,11.70
2024-02-29T15:32:41.008Z,9.13
2024-02-29T15:35:08.997Z,9.73
2024-02-29T15:37:35.877Z,10.68
2024-02-29T15:40:03.380Z,8.48
2024-02-29T15:42:29.818Z,7.93
2024-02-29T15:44:56.670Z,9.30
2024-02-29T15:47:23.152Z,14.00
2024-02-29T15:49:49.609Z,13.13
2024-02-29T15:52:17.960Z,11.85
2024-02-29T15:54:44.646Z,11.10
2024-02-29T15:57:12.568Z,9.95
2024-02-29T15:59:40.271Z,10.23
2024-02-29T16:02:07.779Z,8.80
2024-02-29T16:04:35.942Z,9.73
2024-02-29T16:07:02.449Z,8.75
2024-02-29T16:09:30.778Z,11.65
2024-02-29T16:11:57.276Z,8.43
2024-02-29T16:14:24.032Z,8.52
2024-02-29T16:16:50.584Z,9.93
2024-02-29T16:19:17.195Z,10.77
2024-02-29T16:21:43.768Z,9.50
2024-02-29T16:24:10.529Z,11.75
2024-02-29T16:26:37.429Z,11.05
2024-02-29T16:29:04.146Z,10.52
2024-02-29T16:31:31.054Z,11.70
2024-02-29T16:33:57.864Z,10.90
2024-02-29T16:36:24.452Z,9.95
2024-02-29T16:38:50.976Z,15.07
2024-02-29T16:41:17.922Z,9.05
2024-02-29T16:43:44.715Z,11.25
2024-02-29T16:46:12.138Z,10.80
2024-02-29T16:48:38.713Z,11.60
2024-02-29T16:51:05.459Z,10.27
2024-02-29T16:53:32.499Z,11.05
2024-02-29T16:55:59.875Z,12.60
2024-02-29T16:58:26.941Z,10.77
2024-02-29T17:00:55.494Z,12.02
2024-02-29T17:03:22.056Z,10.50
2024-02-29T17:05:48.755Z,13.25
2024-02-29T17:08:15.244Z,12.25
2024-02-29T17:10:42.026Z,12.40
2024-02-29T17:13:08.632Z,13.88
2024-02-29T17:15:38.316Z,11.45
2024-02-29T17:18:05.241Z,12.57
2024-02-29T17:20:31.904Z,14.73
2024-02-29T17:22:58.545Z,14.88
2024-02-29T17:25:25.096Z,14.77
2024-02-29T17:27:53.956Z,14.13
2024-02-29T17:30:21.916Z,13.48
2024-02-29T17:32:48.563Z,14.00
2024-02-29T17:35:17.095Z,12.40
2024-02-29T17:37:44.811Z,11.70
2024-02-29T17:40:11.812Z,11.48
2024-02-29T17:42:38.422Z,11.38
2024-02-29T17:45:05.874Z,12.73
2024-02-29T17:47:32.392Z,12.77
2024-02-29T17:49:58.935Z,12.23
2024-02-29T17:52:26.446Z,11.30
2024-02-29T17:54:55.531Z,11.25
2024-02-29T17:57:22.451Z,11.10
2024-02-29T17:59:49.156Z,13.82
2024-02-29T18:02:15.698Z,10.38
2024-02-29T18:04:42.390Z,11.80
2024-02-29T18:07:09.022Z,14.10
2024-02-29T18:09:35.984Z,11.20
2024-02-29T18:12:02.557Z,11.80
2024-02-29T18:14:30.058Z,11.50
2024-02-29T18:16:57.507Z,11.90
2024-02-29T18:19:24.173Z,13.38
2024-02-29T18:21:50.773Z,15.68
2024-02-29T18:24:17.380Z,15.43
2024-02-29T18:26:44.890Z,13.95
2024-02-29T18:29:11.431Z,16.35
2024-02-29T18:31:37.955Z,17.42
2024-02-29T18:34:04.514Z,13.35
2024-02-29T18:36:31.027Z,11.48
2024-02-29T18:38:57.721Z,13.43
2024-02-29T18:41:26.030Z,13.20
2024-02-29T18:43:52.989Z,13.55
2024-02-29T18:46:19.687Z,13.57
2024-02-29T18:48:46.394Z,15.75
2024-02-29T18:51:13.185Z,17.13
2024-02-29T18:53:39.707Z,15.52
2024-02-29T18:56:06.341Z,15.77
2024-02-29T18:58:32.865Z,17.35
2024-02-29T19:00:59.584Z,17.92
2024-02-29T19:03:26.126Z,15.95
2024-02-29T19:05:53.098Z,16.45
2024-02-29T19:08:21.430Z,16.05
2024-02-29T19:10:48.053Z,15.38
2024-02-29T19:13:14.850Z,16.80
2024-02-29T19:15:41.489Z,15.75
2024-02-29T19:18:07.936Z,17.95
2024-02-29T19:20:34.553Z,15.25
2024-02-29T19:23:01.097Z,20.60
2024-02-29T19:25:27.917Z,17.45
2024-02-29T19:27:54.487Z,21.77
2024-02-29T19:30:23.390Z,20.48
2024-02-29T19:32:50.299Z,22.30
2024-02-29T19:35:17.252Z,20.35
2024-02-29T19:37:44.060Z,20.65
2024-02-29T19:40:10.817Z,22.73
2024-02-29T19:42:40.299Z,20.10
2024-02-29T19:45:09.127Z,23.20
2024-02-29T19:47:37.558Z,24.95
2024-02-29T19:50:04.442Z,24.70
2024-02-29T19:52:33.468Z,22.80
2024-02-29T19:55:02.304Z,25.67
2024-02-29T19:57:29.107Z,25.05
2024-02-29T19:59:55.546Z,26.77
2024-02-29T20:02:22.067Z,25.42
2024-02-29T20:04:49.513Z,25.67
2024-02-29T20:07:16.525Z,25.85
2024-02-29T20:09:46.726Z,27.95
2024-02-29T20:12:13.279Z,26.17
2024-02-29T20:14:41.568Z,27.92
2024-02-29T20:17:08.724Z,28.23
2024-02-29T20:19:37.419Z,28.33
2024-02-29T20:22:04.969Z,29.05
2024-02-29T20:24:31.736Z,28.35
2024-02-29T20:26:58.243Z,27.50
2024-02-29T20:29:25.066Z,27.77
2024-02-29T20:31:53.353Z,25.98
2024-02-29T20:34:19.888Z,26.55
2024-02-29T20:36:47.567Z,30.38
2024-02-29T20:39:15.408Z,28.70
2024-02-29T20:41:42.207Z,29.65
2024-02-29T20:44:09.368Z,28.45
2024-02-29T20:46:36.123Z,29.15
2024-02-29T20:49:02.652Z,27.27
2024-02-29T20:51:29.138Z,26.42
2024-02-29T20:53:55.656Z,25.83
2024-02-29T20:56:22.706Z,27.02
2024-02-29T20:58:49.246Z,28.60
2024-02-29T21:01:16.147Z,25.75
2024-02-29T21:03:42.719Z,26.13
2024-02-29T21:06:09.220Z,24.17
2024-02-29T21:08:38.507Z,27.75
2024-02-29T21:11:05.056Z,26.10
2024-02-29T21:13:34.763Z,25.77
2024-02-29T21:16:01.507Z,23.10
2024-02-29T21:18:28.085Z,25.25
2024-02-29T21:20:54.527Z,23.35
2024-02-29T21:23:20.995Z,25.45
2024-02-29T21:25:47.566Z,26.23
2024-02-29T21:28:14.656Z,25.60
2024-02-29T21:30:41.652Z,26.02
2024-02-29T21:33:08.242Z,27.05
2024-02-29T21:35:34.775Z,27.67
2024-02-29T21:38:01.260Z,29.90
2024-02-29T21:40:28.378Z,28.67
2024-02-29T21:42:55.037Z,27.35
2024-02-29T21:45:21.713Z,28.02
2024-02-29T21:47:48.360Z,26.38
2024-02-29T21:50:14.808Z,28.38
2024-02-29T21:52:41.573Z,25.88
2024-02-29T21:55:08.784Z,26.15
2024-02-29T21:57:35.376Z,27.42
2024-02-29T22:00:02.139Z,27.15
2024-02-29T22:02:28.613Z,29.30
2024-02-29T22:04:55.572Z,27.45
2024-02-29T22:07:22.376Z,29.83
2024-02-29T22:09:49.891Z,24.88
2024-02-29T22:12:16.336Z,24.50
2024-02-29T22:14:42.752Z,27.20
2024-02-29T22:17:09.465Z,27.52
2024-02-29T22:19:38.238Z,27.08
2024-02-29T22:22:04.856Z,25.08
2024-02-29T22:24:31.343Z,25.88
2024-02-29T22:26:58.697Z,23.30
2024-02-29T22:29:25.160Z,23.38
2024-02-29T22:31:51.586Z,24.60
2024-02-29T22:34:18.152Z,23.05
2024-02-29T22:36:44.760Z,23.65
2024-02-29T22:39:11.994Z,25.40
2024-02-29T22:41:52.441Z,25.55
2024-02-29T22:44:23.840Z,26.60
2024-02-29T22:46:50.394Z,21.67
2024-02-29T22:49:16.848Z,20.98
2024-02-29T22:51:43.440Z,23.30
2024-02-29T22:54:09.870Z,25.45
2024-02-29T22:56:36.723Z,22.20
2024-02-29T22:59:03.195Z,24.60
2024-02-29T23:01:29.873Z,24.52
2024-02-29T23:03:56.801Z,26.10
2024-02-29T23:06:23.679Z,28.13
2024-02-29T23:08:50.106Z,30.73
2024-02-29T23:11:17.319Z,29.25
2024-02-29T23:13:43.967Z,30.20
2024-02-29T23:16:10.489Z,31.92
2024-02-29T23:18:36.936Z,30.20
2024-02-29T23:21:22.877Z,33.17
2024-02-29T23:23:49.400Z,32.88
2024-02-29T23:26:15.816Z,28.98
2024-02-29T23:28:42.212Z,33.50
2024-02-29T23:31:08.781Z,35.15
2024-02-29T23:33:35.786Z,27.83
2024-02-29T23:36:02.333Z,27.25
2024-02-29T23:38:28.748Z,24.38
2024-02-29T23:40:55.189Z,26.15
2024-02-29T23:43:21.798Z,26.38
2024-02-29T23:45:48.237Z,25.13
2024-02-29T23:48:14.830Z,27.60
2024-02-29T23:50:41.316Z,23.25
2024-02-29T23:53:07.745Z,23.58
2024-02-29T23:55:34.490Z,27.95
2024-02-29T23:58:01.049Z,27.30
